sensor_id;sensor_type;location;lat;lon;timestamp;pressure;altitude;pressure_sealevel;temperature;humidity
32197;BME280;18697;42.770;23.400;2023-03-03T00:00:39;95755.88;;;5.09;88.84
32197;BME280;18697;42.770;23.400;2023-03-03T00:03:06;95747.91;;;5.14;88.93
32197;BME280;18697;42.770;23.400;2023-03-03T00:05:33;95758.13;;;5.14;88.98
32197;BME280;18697;42.770;23.400;2023-03-03T00:07:59;95746.28;;;5.17;88.49
32197;BME280;18697;42.770;23.400;2023-03-03T00:10:25;95753.06;;;5.12;88.82
32197;BME280;18697;42.770;23.400;2023-03-03T00:12:50;95754.25;;;5.11;89.07
32197;BME280;18697;42.770;23.400;2023-03-03T00:15:18;95746.94;;;5.21;89.19
32197;BME280;18697;42.770;23.400;2023-03-03T00:17:44;95755.47;;;5.26;88.62
32197;BME280;18697;42.770;23.400;2023-03-03T00:20:32;95753.69;;;5.20;89.04
32197;BME280;18697;42.770;23.400;2023-03-03T00:25:35;95729.66;;;5.20;89.13
32197;BME280;18697;42.770;23.400;2023-03-03T00:30:48;95735.44;;;5.26;89.31
32197;BME280;18697;42.770;23.400;2023-03-03T00:35:56;95736.13;;;5.30;88.63
32197;BME280;18697;42.770;23.400;2023-03-03T00:38:22;95725.31;;;5.39;88.22
32197;BME280;18697;42.770;23.400;2023-03-03T00:40:48;95727.56;;;5.44;88.00
32197;BME280;18697;42.770;23.400;2023-03-03T00:43:24;95723.59;;;5.45;87.93
32197;BME280;18697;42.770;23.400;2023-03-03T00:45:50;95720.72;;;5.33;88.08
32197;BME280;18697;42.770;23.400;2023-03-03T00:48:28;95718.41;;;5.31;87.83
32197;BME280;18697;42.770;23.400;2023-03-03T00:50:56;95714.19;;;5.43;88.04
32197;BME280;18697;42.770;23.400;2023-03-03T00:53:24;95714.28;;;5.39;87.97
32197;BME280;18697;42.770;23.400;2023-03-03T00:55:51;95712.03;;;5.34;87.93
32197;BME280;18697;42.770;23.400;2023-03-03T00:58:17;95704.44;;;5.22;87.96
32197;BME280;18697;42.770;23.400;2023-03-03T01:00:47;95700.66;;;5.16;88.42
32197;BME280;18697;42.770;23.400;2023-03-03T01:03:23;95682.31;;;5.25;88.35
32197;BME280;18697;42.770;23.400;2023-03-03T01:05:50;95685.84;;;5.26;88.31
32197;BME280;18697;42.770;23.400;2023-03-03T01:08:17;95689.91;;;5.21;88.33
32197;BME280;18697;42.770;23.400;2023-03-03T01:10:52;95680.25;;;5.13;88.67
32197;BME280;18697;42.770;23.400;2023-03-03T01:13:20;95680.97;;;5.17;88.33
32197;BME280;18697;42.770;23.400;2023-03-03T01:15:46;95682.50;;;5.18;88.70
32197;BME280;18697;42.770;23.400;2023-03-03T01:18:12;95676.31;;;5.14;88.72
32197;BME280;18697;42.770;23.400;2023-03-03T01:20:38;95673.47;;;5.18;89.02
32197;BME280;18697;42.770;23.400;2023-03-03T01:23:03;95675.09;;;5.15;88.42
32197;BME280;18697;42.770;23.400;2023-03-03T01:25:29;95674.75;;;5.13;89.13
32197;BME280;18697;42.770;23.400;2023-03-03T01:27:55;95676.31;;;5.14;89.27
32197;BME280;18697;42.770;23.400;2023-03-03T01:30:20;95666.41;;;5.17;89.24
32197;BME280;18697;42.770;23.400;2023-03-03T01:32:46;95671.06;;;5.20;88.65
32197;BME280;18697;42.770;23.400;2023-03-03T01:35:11;95674.75;;;5.13;88.92
32197;BME280;18697;42.770;23.400;2023-03-03T01:37:36;95671.56;;;5.15;89.16
32197;BME280;18697;42.770;23.400;2023-03-03T01:40:05;95676.53;;;5.04;89.24
32197;BME280;18697;42.770;23.400;2023-03-03T01:42:31;95677.94;;;5.12;89.47
32197;BME280;18697;42.770;23.400;2023-03-03T01:47:50;95675.00;;;5.03;89.64
32197;BME280;18697;42.770;23.400;2023-03-03T01:50:29;95676.75;;;5.13;89.56
32197;BME280;18697;42.770;23.400;2023-03-03T01:52:57;95677.31;;;5.04;89.51
32197;BME280;18697;42.770;23.400;2023-03-03T01:55:28;95665.97;;;5.02;89.64
32197;BME280;18697;42.770;23.400;2023-03-03T01:58:03;95662.34;;;5.21;89.47
32197;BME280;18697;42.770;23.400;2023-03-03T02:00:31;95674.50;;;5.24;88.88
32197;BME280;18697;42.770;23.400;2023-03-03T02:02:58;95668.91;;;5.27;88.50
32197;BME280;18697;42.770;23.400;2023-03-03T02:05:24;95664.53;;;5.14;88.32
32197;BME280;18697;42.770;23.400;2023-03-03T02:07:50;95671.22;;;5.29;88.38
32197;BME280;18697;42.770;23.400;2023-03-03T02:10:18;95664.63;;;5.43;87.71
32197;BME280;18697;42.770;23.400;2023-03-03T02:12:52;95664.19;;;5.44;87.18
32197;BME280;18697;42.770;23.400;2023-03-03T02:17:44;95671.44;;;5.54;86.59
32197;BME280;18697;42.770;23.400;2023-03-03T02:28:21;95668.66;;;5.38;86.96
32197;BME280;18697;42.770;23.400;2023-03-03T02:30:47;95670.41;;;5.48;86.91
32197;BME280;18697;42.770;23.400;2023-03-03T02:33:12;95656.63;;;5.48;86.58
32197;BME280;18697;42.770;23.400;2023-03-03T02:35:39;95659.72;;;5.50;86.96
32197;BME280;18697;42.770;23.400;2023-03-03T02:43:25;95662.81;;;5.52;86.95
32197;BME280;18697;42.770;23.400;2023-03-03T02:45:53;95654.91;;;5.54;86.86
32197;BME280;18697;42.770;23.400;2023-03-03T02:48:18;95661.34;;;5.64;86.65
32197;BME280;18697;42.770;23.400;2023-03-03T02:50:44;95661.34;;;5.64;86.44
32197;BME280;18697;42.770;23.400;2023-03-03T02:53:09;95663.44;;;5.60;86.26
32197;BME280;18697;42.770;23.400;2023-03-03T02:55:34;95658.94;;;5.50;86.53
32197;BME280;18697;42.770;23.400;2023-03-03T02:58:00;95648.34;;;5.65;86.61
32197;BME280;18697;42.770;23.400;2023-03-03T03:00:25;95648.88;;;5.59;86.18
32197;BME280;18697;42.770;23.400;2023-03-03T03:02:51;95651.47;;;5.67;86.03
32197;BME280;18697;42.770;23.400;2023-03-03T03:05:16;95651.28;;;5.74;85.54
32197;BME280;18697;42.770;23.400;2023-03-03T03:07:41;95656.88;;;5.70;85.50
32197;BME280;18697;42.770;23.400;2023-03-03T03:10:07;95655.75;;;5.51;86.03
32197;BME280;18697;42.770;23.400;2023-03-03T03:12:33;95652.66;;;5.49;86.74
32197;BME280;18697;42.770;23.400;2023-03-03T03:14:58;95645.78;;;5.57;86.58
32197;BME280;18697;42.770;23.400;2023-03-03T03:17:25;95646.72;;;5.51;86.43
32197;BME280;18697;42.770;23.400;2023-03-03T03:19:50;95642.94;;;5.61;86.38
32197;BME280;18697;42.770;23.400;2023-03-03T03:22:15;95645.44;;;5.55;86.09
32197;BME280;18697;42.770;23.400;2023-03-03T03:24:41;95643.97;;;5.67;86.08
32197;BME280;18697;42.770;23.400;2023-03-03T03:27:06;95655.06;;;5.64;86.04
32197;BME280;18697;42.770;23.400;2023-03-03T03:29:32;95644.41;;;5.66;85.94
32197;BME280;18697;42.770;23.400;2023-03-03T03:31:58;95638.13;;;5.65;85.77
32197;BME280;18697;42.770;23.400;2023-03-03T03:34:23;95629.06;;;5.65;86.03
32197;BME280;18697;42.770;23.400;2023-03-03T03:36:49;95635.19;;;5.72;86.07
32197;BME280;18697;42.770;23.400;2023-03-03T03:39:14;95634.31;;;5.75;85.88
32197;BME280;18697;42.770;23.400;2023-03-03T03:41:40;95634.66;;;5.61;85.92
32197;BME280;18697;42.770;23.400;2023-03-03T03:44:05;95622.88;;;5.60;86.27
32197;BME280;18697;42.770;23.400;2023-03-03T03:46:30;95625.28;;;5.58;86.64
32197;BME280;18697;42.770;23.400;2023-03-03T03:48:56;95619.00;;;5.58;86.95
32197;BME280;18697;42.770;23.400;2023-03-03T03:51:21;95617.38;;;5.60;87.06
32197;BME280;18697;42.770;23.400;2023-03-03T03:53:46;95622.00;;;5.64;86.74
32197;BME280;18697;42.770;23.400;2023-03-03T03:56:12;95621.66;;;5.61;87.35
32197;BME280;18697;42.770;23.400;2023-03-03T03:58:40;95617.28;;;5.64;87.03
32197;BME280;18697;42.770;23.400;2023-03-03T04:01:06;95614.78;;;5.70;87.16
32197;BME280;18697;42.770;23.400;2023-03-03T04:03:33;95614.59;;;5.60;87.36
32197;BME280;18697;42.770;23.400;2023-03-03T04:05:59;95617.44;;;5.73;87.10
32197;BME280;18697;42.770;23.400;2023-03-03T04:08:24;95619.66;;;5.78;86.85
32197;BME280;18697;42.770;23.400;2023-03-03T04:10:49;95618.91;;;5.78;86.53
32197;BME280;18697;42.770;23.400;2023-03-03T04:13:15;95620.19;;;5.73;86.87
32197;BME280;18697;42.770;23.400;2023-03-03T04:15:40;95617.53;;;5.70;86.76
32197;BME280;18697;42.770;23.400;2023-03-03T04:18:06;95624.50;;;5.74;87.22
32197;BME280;18697;42.770;23.400;2023-03-03T04:20:31;95616.69;;;5.56;87.32
32197;BME280;18697;42.770;23.400;2023-03-03T04:22:57;95622.63;;;5.55;87.86
32197;BME280;18697;42.770;23.400;2023-03-03T04:25:22;95618.41;;;5.50;88.26
32197;BME280;18697;42.770;23.400;2023-03-03T04:27:48;95617.19;;;5.35;88.96
32197;BME280;18697;42.770;23.400;2023-03-03T04:30:15;95607.28;;;5.38;89.53
32197;BME280;18697;42.770;23.400;2023-03-03T04:32:41;95616.16;;;5.45;89.34
32197;BME280;18697;42.770;23.400;2023-03-03T04:35:07;95623.03;;;5.53;89.34
32197;BME280;18697;42.770;23.400;2023-03-03T04:37:33;95617.38;;;5.44;89.39
32197;BME280;18697;42.770;23.400;2023-03-03T04:39:58;95609.34;;;5.50;89.76
32197;BME280;18697;42.770;23.400;2023-03-03T04:42:25;95614.78;;;5.53;89.34
32197;BME280;18697;42.770;23.400;2023-03-03T04:44:52;95611.69;;;5.51;89.35
32197;BME280;18697;42.770;23.400;2023-03-03T04:47:17;95607.63;;;5.56;89.54
32197;BME280;18697;42.770;23.400;2023-03-03T04:49:42;95614.59;;;5.60;89.22
32197;BME280;18697;42.770;23.400;2023-03-03T04:52:08;95623.66;;;5.61;88.99
32197;BME280;18697;42.770;23.400;2023-03-03T04:54:33;95615.28;;;5.65;89.00
32197;BME280;18697;42.770;23.400;2023-03-03T04:56:58;95619.94;;;5.68;89.00
32197;BME280;18697;42.770;23.400;2023-03-03T04:59:24;95618.38;;;5.67;88.80
32197;BME280;18697;42.770;23.400;2023-03-03T05:01:49;95618.72;;;5.69;88.81
32197;BME280;18697;42.770;23.400;2023-03-03T05:04:15;95621.66;;;5.61;89.10
32197;BME280;18697;42.770;23.400;2023-03-03T05:06:40;95617.28;;;5.64;89.35
32197;BME280;18697;42.770;23.400;2023-03-03T05:09:06;95618.06;;;5.48;89.38
32197;BME280;18697;42.770;23.400;2023-03-03T05:11:31;95623.91;;;5.50;89.72
32197;BME280;18697;42.770;23.400;2023-03-03T05:13:57;95620.28;;;5.53;89.95
32197;BME280;18697;42.770;23.400;2023-03-03T05:16:23;95626.16;;;5.55;90.24
32197;BME280;18697;42.770;23.400;2023-03-03T05:18:48;95617.88;;;5.55;90.20
32197;BME280;18697;42.770;23.400;2023-03-03T05:21:13;95629.94;;;5.61;90.20
32197;BME280;18697;42.770;23.400;2023-03-03T05:23:39;95623.03;;;5.70;90.31
32197;BME280;18697;42.770;23.400;2023-03-03T05:26:04;95630.78;;;5.75;89.78
32197;BME280;18697;42.770;23.400;2023-03-03T05:28:31;95627.16;;;5.78;89.59
32197;BME280;18697;42.770;23.400;2023-03-03T05:30:57;95634.47;;;5.84;89.56
32197;BME280;18697;42.770;23.400;2023-03-03T05:33:22;95623.53;;;5.81;89.20
32197;BME280;18697;42.770;23.400;2023-03-03T05:35:53;95631.13;;;5.93;89.44
32197;BME280;18697;42.770;23.400;2023-03-03T05:38:18;95632.47;;;6.01;89.44
32197;BME280;18697;42.770;23.400;2023-03-03T05:40:43;95630.78;;;5.91;89.19
32197;BME280;18697;42.770;23.400;2023-03-03T05:43:09;95637.22;;;6.01;89.45
32197;BME280;18697;42.770;23.400;2023-03-03T05:45:34;95633.34;;;5.98;89.61
32197;BME280;18697;42.770;23.400;2023-03-03T05:48:00;95642.31;;;5.86;89.54
32197;BME280;18697;42.770;23.400;2023-03-03T05:50:25;95643.69;;;5.78;89.65
32197;BME280;18697;42.770;23.400;2023-03-03T05:52:51;95638.53;;;5.64;90.26
32197;BME280;18697;42.770;23.400;2023-03-03T05:55:17;95639.75;;;5.63;90.80
32197;BME280;18697;42.770;23.400;2023-03-03T05:57:42;95645.59;;;5.81;91.36
32197;BME280;18697;42.770;23.400;2023-03-03T06:00:08;95643.09;;;5.86;90.56
32197;BME280;18697;42.770;23.400;2023-03-03T06:02:34;95644.56;;;5.91;89.84
32197;BME280;18697;42.770;23.400;2023-03-03T06:05:00;95642.06;;;5.80;89.82
32197;BME280;18697;42.770;23.400;2023-03-03T06:07:25;95637.94;;;5.72;89.74
32197;BME280;18697;42.770;23.400;2023-03-03T06:09:51;95640.94;;;5.78;90.04
32197;BME280;18697;42.770;23.400;2023-03-03T06:12:16;95638.28;;;5.74;90.62
32197;BME280;18697;42.770;23.400;2023-03-03T06:14:42;95634.06;;;5.70;90.80
32197;BME280;18697;42.770;23.400;2023-03-03T06:17:07;95641.22;;;5.67;90.07
32197;BME280;18697;42.770;23.400;2023-03-03T06:19:32;95639.66;;;5.66;90.55
32197;BME280;18697;42.770;23.400;2023-03-03T06:21:58;95646.28;;;5.52;90.22
32197;BME280;18697;42.770;23.400;2023-03-03T06:24:23;95643.19;;;5.34;90.29
32197;BME280;18697;42.770;23.400;2023-03-03T06:26:51;95648.34;;;5.48;90.72
32197;BME280;18697;42.770;23.400;2023-03-03T06:29:16;95649.56;;;5.47;91.03
32197;BME280;18697;42.770;23.400;2023-03-03T06:31:42;95649.41;;;5.54;91.46
32197;BME280;18697;42.770;23.400;2023-03-03T06:34:07;95651.38;;;5.54;90.93
32197;BME280;18697;42.770;23.400;2023-03-03T06:36:33;95646.72;;;5.51;91.17
32197;BME280;18697;42.770;23.400;2023-03-03T06:38:58;95646.63;;;5.54;90.59
32197;BME280;18697;42.770;23.400;2023-03-03T06:41:25;95643.97;;;5.51;90.42
32197;BME280;18697;42.770;23.400;2023-03-03T06:43:50;95647.66;;;5.44;90.81
32197;BME280;18697;42.770;23.400;2023-03-03T06:46:15;95648.44;;;5.61;91.24
32197;BME280;18697;42.770;23.400;2023-03-03T06:48:41;95654.28;;;5.47;90.10
32197;BME280;18697;42.770;23.400;2023-03-03T06:51:31;95657.41;;;5.49;89.68
32197;BME280;18697;42.770;23.400;2023-03-03T06:53:58;95656.28;;;5.46;89.89
32197;BME280;18697;42.770;23.400;2023-03-03T06:56:26;95653.69;;;5.55;89.49
32197;BME280;18697;42.770;23.400;2023-03-03T06:58:59;95663.25;;;5.51;89.74
32197;BME280;18697;42.770;23.400;2023-03-03T07:01:27;95659.88;;;5.43;89.97
32197;BME280;18697;42.770;23.400;2023-03-03T07:03:55;95661.34;;;5.48;90.26
32197;BME280;18697;42.770;23.400;2023-03-03T07:06:24;95661.34;;;5.48;90.40
32197;BME280;18697;42.770;23.400;2023-03-03T07:08:53;95666.44;;;5.49;91.13
32197;BME280;18697;42.770;23.400;2023-03-03T07:11:21;95665.75;;;5.45;90.44
32197;BME280;18697;42.770;23.400;2023-03-03T07:13:49;95666.97;;;5.60;90.64
32197;BME280;18697;42.770;23.400;2023-03-03T07:16:16;95654.72;;;5.61;89.83
32197;BME280;18697;42.770;23.400;2023-03-03T07:18:52;95661.63;;;5.70;89.62
32197;BME280;18697;42.770;23.400;2023-03-03T07:21:23;95654.91;;;5.71;89.70
32197;BME280;18697;42.770;23.400;2023-03-03T07:23:52;95653.44;;;5.66;89.19
32197;BME280;18697;42.770;23.400;2023-03-03T07:26:20;95659.28;;;5.68;89.13
32197;BME280;18697;42.770;23.400;2023-03-03T07:28:55;95655.41;;;5.66;89.20
32197;BME280;18697;42.770;23.400;2023-03-03T07:31:36;95655.25;;;5.73;89.93
32197;BME280;18697;42.770;23.400;2023-03-03T07:37:09;95654.91;;;5.71;89.40
32197;BME280;18697;42.770;23.400;2023-03-03T07:39:37;95659.22;;;5.72;88.76
32197;BME280;18697;42.770;23.400;2023-03-03T07:42:23;95658.16;;;5.82;89.01
32197;BME280;18697;42.770;23.400;2023-03-03T07:44:53;95650.53;;;5.89;88.66
32197;BME280;18697;42.770;23.400;2023-03-03T07:47:27;95650.16;;;5.87;88.16
32197;BME280;18697;42.770;23.400;2023-03-03T07:49:55;95659.34;;;5.97;88.35
32197;BME280;18697;42.770;23.400;2023-03-03T07:54:51;95652.28;;;5.96;86.58
32197;BME280;18697;42.770;23.400;2023-03-03T07:59:52;95655.06;;;5.80;87.26
32197;BME280;18697;42.770;23.400;2023-03-03T08:04:53;95641.81;;;5.75;87.67
32197;BME280;18697;42.770;23.400;2023-03-03T08:07:21;95640.78;;;5.69;87.17
32197;BME280;18697;42.770;23.400;2023-03-03T08:10:00;95643.28;;;5.63;87.21
32197;BME280;18697;42.770;23.400;2023-03-03T08:12:41;95648.63;;;5.70;88.88
32197;BME280;18697;42.770;23.400;2023-03-03T08:15:21;95640.84;;;5.81;88.76
32197;BME280;18697;42.770;23.400;2023-03-03T08:17:49;95648.59;;;5.86;87.75
32197;BME280;18697;42.770;23.400;2023-03-03T08:22:58;95639.06;;;5.91;86.63
32197;BME280;18697;42.770;23.400;2023-03-03T08:25:23;95640.22;;;6.06;86.74
32197;BME280;18697;42.770;23.400;2023-03-03T08:27:49;95640.19;;;5.93;85.84
32197;BME280;18697;42.770;23.400;2023-03-03T08:30:14;95644.56;;;5.91;86.31
32197;BME280;18697;42.770;23.400;2023-03-03T08:32:40;95632.56;;;5.98;87.76
32197;BME280;18697;42.770;23.400;2023-03-03T08:35:05;95641.09;;;6.03;88.36
32197;BME280;18697;42.770;23.400;2023-03-03T08:37:31;95634.88;;;5.99;87.54
32197;BME280;18697;42.770;23.400;2023-03-03T08:39:56;95637.47;;;6.06;87.85
32197;BME280;18697;42.770;23.400;2023-03-03T08:42:22;95633.06;;;6.09;87.24
32197;BME280;18697;42.770;23.400;2023-03-03T08:44:47;95633.72;;;5.84;86.97
32197;BME280;18697;42.770;23.400;2023-03-03T08:47:12;95634.47;;;5.84;87.52
32197;BME280;18697;42.770;23.400;2023-03-03T08:49:38;95636.09;;;5.98;88.91
32197;BME280;18697;42.770;23.400;2023-03-03T08:52:04;95637.22;;;6.01;88.63
32197;BME280;18697;42.770;23.400;2023-03-03T08:54:29;95635.56;;;6.03;87.19
32197;BME280;18697;42.770;23.400;2023-03-03T08:56:55;95636.09;;;5.98;86.95
32197;BME280;18697;42.770;23.400;2023-03-03T08:59:20;95644.38;;;5.98;88.30
32197;BME280;18697;42.770;23.400;2023-03-03T09:01:46;95634.88;;;5.99;87.41
32197;BME280;18697;42.770;23.400;2023-03-03T09:04:11;95630.66;;;6.11;87.56
32197;BME280;18697;42.770;23.400;2023-03-03T09:06:37;95628.81;;;6.20;88.50
32197;BME280;18697;42.770;23.400;2023-03-03T09:09:03;95640.81;;;6.14;87.17
32197;BME280;18697;42.770;23.400;2023-03-03T09:11:29;95629.34;;;6.15;85.35
32197;BME280;18697;42.770;23.400;2023-03-03T09:14:10;95633.25;;;6.31;86.73
32197;BME280;18697;42.770;23.400;2023-03-03T09:16:39;95632.59;;;6.26;86.66
32197;BME280;18697;42.770;23.400;2023-03-03T09:19:34;95629.50;;;6.24;85.52
32197;BME280;18697;42.770;23.400;2023-03-03T09:22:16;95628.44;;;6.35;85.47
32197;BME280;18697;42.770;23.400;2023-03-03T09:24:42;95628.44;;;6.35;86.92
32197;BME280;18697;42.770;23.400;2023-03-03T09:27:29;95624.03;;;6.37;85.91
32197;BME280;18697;42.770;23.400;2023-03-03T09:29:56;95626.25;;;6.42;85.23
32197;BME280;18697;42.770;23.400;2023-03-03T09:32:36;95616.59;;;6.63;86.73
32197;BME280;18697;42.770;23.400;2023-03-03T09:35:35;95622.97;;;6.60;84.07
32197;BME280;18697;42.770;23.400;2023-03-03T09:38:18;95622.66;;;6.71;84.32
32197;BME280;18697;42.770;23.400;2023-03-03T09:41:15;95622.22;;;6.59;82.45
32197;BME280;18697;42.770;23.400;2023-03-03T09:44:35;95625.41;;;6.58;81.43
32197;BME280;18697;42.770;23.400;2023-03-03T09:50:06;95614.03;;;6.69;80.97
32197;BME280;18697;42.770;23.400;2023-03-03T10:03:46;95613.31;;;7.19;78.91
32197;BME280;18697;42.770;23.400;2023-03-03T10:12:11;95617.19;;;7.09;78.35
32197;BME280;18697;42.770;23.400;2023-03-03T10:17:51;95610.56;;;7.32;78.89
32197;BME280;18697;42.770;23.400;2023-03-03T10:20:37;95601.00;;;7.45;77.83
32197;BME280;18697;42.770;23.400;2023-03-03T10:37:44;95589.88;;;7.83;75.84
32197;BME280;18697;42.770;23.400;2023-03-03T10:40:25;95591.63;;;7.90;75.17
32197;BME280;18697;42.770;23.400;2023-03-03T10:46:00;95585.03;;;8.09;75.71
32197;BME280;18697;42.770;23.400;2023-03-03T10:51:44;95578.78;;;8.18;74.25
32197;BME280;18697;42.770;23.400;2023-03-03T10:57:33;95575.13;;;7.99;73.25
32197;BME280;18697;42.770;23.400;2023-03-03T11:06:04;95558.88;;;8.45;72.35
32197;BME280;18697;42.770;23.400;2023-03-03T11:08:51;95562.00;;;8.56;72.04
32197;BME280;18697;42.770;23.400;2023-03-03T11:16:59;95552.25;;;8.42;74.12
32197;BME280;18697;42.770;23.400;2023-03-03T11:24:59;95552.66;;;8.94;72.51
32197;BME280;18697;42.770;23.400;2023-03-03T11:31:17;95546.69;;;9.04;71.61
32197;BME280;18697;42.770;23.400;2023-03-03T11:33:22;95541.31;;;9.10;70.14
32197;BME280;18697;42.770;23.400;2023-03-03T11:36:15;95536.88;;;9.12;70.72
32197;BME280;18697;42.770;23.400;2023-03-03T11:39:04;95533.22;;;9.25;73.21
32197;BME280;18697;42.770;23.400;2023-03-03T11:44:34;95537.97;;;9.15;70.48
32197;BME280;18697;42.770;23.400;2023-03-03T11:49:50;95536.34;;;8.96;70.67
32197;BME280;18697;42.770;23.400;2023-03-03T12:08:03;95530.19;;;9.41;72.03
32197;BME280;18697;42.770;23.400;2023-03-03T12:13:11;95532.53;;;9.61;71.90
32197;BME280;18697;42.770;23.400;2023-03-03T12:15:54;95527.13;;;9.66;72.91
32197;BME280;18697;42.770;23.400;2023-03-03T12:23:56;95537.16;;;9.54;72.93
32197;BME280;18697;42.770;23.400;2023-03-03T12:26:40;95534.53;;;9.51;73.86
32197;BME280;18697;42.770;23.400;2023-03-03T12:29:24;95536.38;;;9.54;76.73
32197;BME280;18697;42.770;23.400;2023-03-03T12:34:44;95534.75;;;9.26;75.94
32197;BME280;18697;42.770;23.400;2023-03-03T12:40:01;95537.13;;;8.96;78.04
32197;BME280;18697;42.770;23.400;2023-03-03T12:48:33;95540.88;;;8.71;79.47
32197;BME280;18697;42.770;23.400;2023-03-03T12:59:04;95539.22;;;8.52;81.08
32197;BME280;18697;42.770;23.400;2023-03-03T13:04:30;95537.69;;;8.51;81.58
32197;BME280;18697;42.770;23.400;2023-03-03T13:10:07;95532.03;;;8.33;81.37
32197;BME280;18697;42.770;23.400;2023-03-03T13:15:25;95529.63;;;8.22;81.16
32197;BME280;18697;42.770;23.400;2023-03-03T13:20:21;95522.09;;;8.22;81.88
32197;BME280;18697;42.770;23.400;2023-03-03T13:22:56;95526.72;;;8.25;82.13
32197;BME280;18697;42.770;23.400;2023-03-03T13:25:40;95524.53;;;8.20;81.93
32197;BME280;18697;42.770;23.400;2023-03-03T13:28:32;95527.50;;;8.26;82.48
32197;BME280;18697;42.770;23.400;2023-03-03T13:31:17;95531.13;;;8.36;82.58
32197;BME280;18697;42.770;23.400;2023-03-03T13:33:53;95520.97;;;8.33;82.52
32197;BME280;18697;42.770;23.400;2023-03-03T13:36:19;95517.06;;;8.30;82.60
32197;BME280;18697;42.770;23.400;2023-03-03T13:38:52;95523.91;;;8.38;83.04
32197;BME280;18697;42.770;23.400;2023-03-03T13:41:28;95525.06;;;8.50;82.69
32197;BME280;18697;42.770;23.400;2023-03-03T13:46:36;95527.56;;;8.57;80.32
32197;BME280;18697;42.770;23.400;2023-03-03T14:10:29;95516.19;;;8.95;80.54
32197;BME280;18697;42.770;23.400;2023-03-03T14:13:11;95517.44;;;9.03;81.36
32197;BME280;18697;42.770;23.400;2023-03-03T14:15:47;95522.03;;;8.97;79.61
32197;BME280;18697;42.770;23.400;2023-03-03T14:18:38;95524.19;;;8.93;79.77
32197;BME280;18697;42.770;23.400;2023-03-03T14:21:25;95517.53;;;8.81;79.64
32197;BME280;18697;42.770;23.400;2023-03-03T14:26:27;95513.06;;;8.75;79.67
32197;BME280;18697;42.770;23.400;2023-03-03T14:29:23;95508.09;;;8.70;78.83
32197;BME280;18697;42.770;23.400;2023-03-03T14:31:55;95510.09;;;8.69;79.13
32197;BME280;18697;42.770;23.400;2023-03-03T14:34:29;95506.09;;;8.70;79.89
32197;BME280;18697;42.770;23.400;2023-03-03T14:37:21;95496.28;;;8.78;80.96
32197;BME280;18697;42.770;23.400;2023-03-03T14:40:29;95498.78;;;8.85;80.19
32197;BME280;18697;42.770;23.400;2023-03-03T14:42:55;95507.69;;;8.80;79.17
32197;BME280;18697;42.770;23.400;2023-03-03T14:45:36;95501.19;;;8.74;79.28
32197;BME280;18697;42.770;23.400;2023-03-03T14:53:20;95506.41;;;8.72;80.48
32197;BME280;18697;42.770;23.400;2023-03-03T14:55:48;95495.53;;;8.78;80.28
32197;BME280;18697;42.770;23.400;2023-03-03T15:03:51;95496.63;;;8.80;79.40
32197;BME280;18697;42.770;23.400;2023-03-03T15:06:43;95485.34;;;8.75;78.73
32197;BME280;18697;42.770;23.400;2023-03-03T15:09:37;95487.06;;;8.81;78.85
32197;BME280;18697;42.770;23.400;2023-03-03T15:17:38;95503.44;;;8.98;78.80
32197;BME280;18697;42.770;23.400;2023-03-03T15:22:48;95492.66;;;9.00;78.01
32197;BME280;18697;42.770;23.400;2023-03-03T15:30:50;95499.63;;;9.13;78.33
32197;BME280;18697;42.770;23.400;2023-03-03T15:33:28;95494.06;;;9.04;77.09
32197;BME280;18697;42.770;23.400;2023-03-03T15:41:46;95500.19;;;8.90;77.57
32197;BME280;18697;42.770;23.400;2023-03-03T15:44:32;95499.09;;;8.87;77.55
32197;BME280;18697;42.770;23.400;2023-03-03T15:47:17;95506.34;;;8.94;77.45
32197;BME280;18697;42.770;23.400;2023-03-03T15:52:29;95501.72;;;8.91;77.16
32197;BME280;18697;42.770;23.400;2023-03-03T16:00:33;95511.72;;;8.88;77.44
32197;BME280;18697;42.770;23.400;2023-03-03T16:03:09;95506.63;;;8.87;77.43
32197;BME280;18697;42.770;23.400;2023-03-03T16:05:39;95512.19;;;8.87;76.95
32197;BME280;18697;42.770;23.400;2023-03-03T16:08:16;95518.50;;;8.87;76.86
32197;BME280;18697;42.770;23.400;2023-03-03T16:21:22;95529.59;;;8.97;75.70
32197;BME280;18697;42.770;23.400;2023-03-03T16:23:51;95537.56;;;8.95;75.55
32197;BME280;18697;42.770;23.400;2023-03-03T16:32:02;95543.78;;;9.08;75.87
32197;BME280;18697;42.770;23.400;2023-03-03T16:34:37;95532.38;;;9.06;75.62
32197;BME280;18697;42.770;23.400;2023-03-03T17:04:00;95567.44;;;9.40;74.03
32197;BME280;18697;42.770;23.400;2023-03-03T17:06:40;95572.69;;;9.38;73.52
32197;BME280;18697;42.770;23.400;2023-03-03T17:09:24;95567.09;;;9.29;74.20
32197;BME280;18697;42.770;23.400;2023-03-03T17:17:24;95583.78;;;9.07;75.27
32197;BME280;18697;42.770;23.400;2023-03-03T17:20:18;95578.81;;;8.93;75.80
32197;BME280;18697;42.770;23.400;2023-03-03T17:39:47;95583.16;;;9.03;77.10
32197;BME280;18697;42.770;23.400;2023-03-03T17:42:32;95598.81;;;8.87;78.03
32197;BME280;18697;42.770;23.400;2023-03-03T17:45:12;95596.63;;;8.82;77.94
32197;BME280;18697;42.770;23.400;2023-03-03T17:53:18;95598.91;;;8.75;77.88
32197;BME280;18697;42.770;23.400;2023-03-03T18:04:25;95615.28;;;8.91;77.56
32197;BME280;18697;42.770;23.400;2023-03-03T18:20:01;95637.78;;;9.02;77.29
32197;BME280;18697;42.770;23.400;2023-03-03T18:22:42;95628.56;;;8.74;78.72
32197;BME280;18697;42.770;23.400;2023-03-03T18:25:11;95634.06;;;8.65;79.12
32197;BME280;18697;42.770;23.400;2023-03-03T18:27:39;95639.13;;;8.88;78.62
32197;BME280;18697;42.770;23.400;2023-03-03T18:32:46;95638.88;;;8.52;79.55
32197;BME280;18697;42.770;23.400;2023-03-03T18:38:42;95646.22;;;8.68;79.97
32197;BME280;18697;42.770;23.400;2023-03-03T18:48:56;95648.25;;;8.98;78.23
32197;BME280;18697;42.770;23.400;2023-03-03T19:04:43;95674.44;;;9.28;76.80
32197;BME280;18697;42.770;23.400;2023-03-03T19:09:47;95673.06;;;9.33;76.03
32197;BME280;18697;42.770;23.400;2023-03-03T19:12:17;95677.84;;;9.32;76.18